Pagrindinis puslapis
METAR-TAF:

METAR-TAF

Oro uostai :

Subang Jaya, Malaizija

platuma: 03-07N, ilguma: 101-32E, Aukštis: 27 m

Dabartinis oras

Ataskaita buvo paskelbta 1 valandą ir 17 minutes, ne 22:00 UTC
Ramus vėjas
Temperatūra 26°C
Drėgmė 89%
Slėgis 1008 hPa
Matomumas 10 km arba daugiau
Mažai debesys ne aukštis 1700 ft, Liūtiniai kamuoliniai debesys.

METAR: WMSA 292200Z 00000KT 9999 FEW017CB 26/24 Q1008

Laikas: 07:17 (23:17 UTC)

Prognozė

Ataskaita buvo paskelbta 6 valandos ir 17 minutes, ne 17:00 UTC
Prognozė galioja nuo 29 metu 18 UTC su 30 metu 18 UTC
Vėjas 5 kt iš Šiaurės Vakarų
Matomumas 10 km arba daugiau
Mažai debesys ne aukštis 1800 ft
Laikinai
nuo 30 metu 07 UTC su 30 metu 11 UTC
Matomumas: 5000 m
Mažai debesys ne aukštis 1000 ft
Mažai debesys ne aukštis 1700 ft, Liūtiniai kamuoliniai debesys.
perkūnija, lietus

TAF: WMSA 291700Z 2918/3018 31005KT 9999 FEW018 TEMPO 3007/3011 5000 TSRA FEW010 FEW017CB

Orai ataskaitas ir orų prognozės (METAR, TAF).

turimą stotys yra geltonos ir raudonos taškus žemėlapyje.

Perkelti pele per norėdami pamatyti stoties vardą.

Tada spustelėkite, norėdami matyti oro stebėjimo ir prognozės.

Norėdami pakeisti žemėlapį: spustelėkite ant žalios mygtukų su juodo kryžiaus žemyn,; žalią mygtuką su brūkšneliu, jei norite nutolinti; arba žalių rodyklių gretimoms žemėlapius.


METAR-TAF: